sensor_id;sensor_type;location;lat;lon;timestamp;temperature;humidity
25504;DHT22;13410;52.114;5.718;2022-10-13T00:00:19;16.00;99.90
25504;DHT22;13410;52.114;5.718;2022-10-13T00:02:45;16.10;99.90
25504;DHT22;13410;52.114;5.718;2022-10-13T00:05:10;16.00;99.90
25504;DHT22;13410;52.114;5.718;2022-10-13T00:07:36;16.00;99.90
25504;DHT22;13410;52.114;5.718;2022-10-13T00:10:01;16.00;99.90
25504;DHT22;13410;52.114;5.718;2022-10-13T00:12:27;16.00;99.90
25504;DHT22;13410;52.114;5.718;2022-10-13T00:14:52;16.00;99.90
25504;DHT22;13410;52.114;5.718;2022-10-13T00:17:18;16.00;99.90
25504;DHT22;13410;52.114;5.718;2022-10-13T00:19:43;16.10;99.90
25504;DHT22;13410;52.114;5.718;2022-10-13T00:22:09;16.10;99.90
25504;DHT22;13410;52.114;5.718;2022-10-13T00:24:35;16.10;99.90
25504;DHT22;13410;52.114;5.718;2022-10-13T00:27:00;16.00;99.90
25504;DHT22;13410;52.114;5.718;2022-10-13T00:29:26;16.10;99.90
25504;DHT22;13410;52.114;5.718;2022-10-13T00:31:51;16.10;99.90
25504;DHT22;13410;52.114;5.718;2022-10-13T00:34:17;15.90;99.90
25504;DHT22;13410;52.114;5.718;2022-10-13T00:36:42;15.90;99.90
25504;DHT22;13410;52.114;5.718;2022-10-13T00:39:08;15.90;99.90
25504;DHT22;13410;52.114;5.718;2022-10-13T00:41:33;15.90;99.90
25504;DHT22;13410;52.114;5.718;2022-10-13T00:44:04;16.00;99.90
25504;DHT22;13410;52.114;5.718;2022-10-13T00:46:34;16.00;99.90
25504;DHT22;13410;52.114;5.718;2022-10-13T00:49:07;15.90;99.90
25504;DHT22;13410;52.114;5.718;2022-10-13T00:51:38;16.00;99.90
25504;DHT22;13410;52.114;5.718;2022-10-13T00:54:05;15.90;99.90
25504;DHT22;13410;52.114;5.718;2022-10-13T00:56:31;15.90;99.90
25504;DHT22;13410;52.114;5.718;2022-10-13T00:58:59;15.90;99.90
25504;DHT22;13410;52.114;5.718;2022-10-13T01:01:25;16.10;99.90
25504;DHT22;13410;52.114;5.718;2022-10-13T01:03:51;16.10;99.90
25504;DHT22;13410;52.114;5.718;2022-10-13T01:06:18;16.10;99.90
25504;DHT22;13410;52.114;5.718;2022-10-13T01:08:43;16.00;99.90
25504;DHT22;13410;52.114;5.718;2022-10-13T01:11:31;16.20;99.90
25504;DHT22;13410;52.114;5.718;2022-10-13T01:14:16;16.20;99.90
25504;DHT22;13410;52.114;5.718;2022-10-13T01:16:55;16.10;99.90
25504;DHT22;13410;52.114;5.718;2022-10-13T01:22:19;16.00;99.90
25504;DHT22;13410;52.114;5.718;2022-10-13T01:30:45;16.20;99.90
25504;DHT22;13410;52.114;5.718;2022-10-13T01:33:29;16.10;99.90
25504;DHT22;13410;52.114;5.718;2022-10-13T01:36:25;16.20;99.90
25504;DHT22;13410;52.114;5.718;2022-10-13T01:41:38;16.30;99.90
25504;DHT22;13410;52.114;5.718;2022-10-13T01:44:13;16.20;99.90
25504;DHT22;13410;52.114;5.718;2022-10-13T01:46:42;16.20;99.90
25504;DHT22;13410;52.114;5.718;2022-10-13T01:49:13;16.20;99.90
25504;DHT22;13410;52.114;5.718;2022-10-13T01:51:41;16.10;99.90
25504;DHT22;13410;52.114;5.718;2022-10-13T01:54:07;16.20;99.90
25504;DHT22;13410;52.114;5.718;2022-10-13T01:56:32;16.20;99.90
25504;DHT22;13410;52.114;5.718;2022-10-13T01:59:04;16.20;99.90
25504;DHT22;13410;52.114;5.718;2022-10-13T02:01:55;16.30;99.90
25504;DHT22;13410;52.114;5.718;2022-10-13T02:10:26;16.40;99.90
25504;DHT22;13410;52.114;5.718;2022-10-13T02:13:01;16.40;99.90
25504;DHT22;13410;52.114;5.718;2022-10-13T02:15:34;16.40;99.90
25504;DHT22;13410;52.114;5.718;2022-10-13T02:18:02;16.50;99.90
25504;DHT22;13410;52.114;5.718;2022-10-13T02:20:29;16.50;99.90
25504;DHT22;13410;52.114;5.718;2022-10-13T02:23:00;16.40;99.90
25504;DHT22;13410;52.114;5.718;2022-10-13T02:25:28;16.60;99.90
25504;DHT22;13410;52.114;5.718;2022-10-13T02:27:57;16.50;99.90
25504;DHT22;13410;52.114;5.718;2022-10-13T02:30:26;16.60;99.90
25504;DHT22;13410;52.114;5.718;2022-10-13T02:32:51;16.60;99.90
25504;DHT22;13410;52.114;5.718;2022-10-13T02:35:17;16.50;99.90
25504;DHT22;13410;52.114;5.718;2022-10-13T02:37:43;16.60;99.90
25504;DHT22;13410;52.114;5.718;2022-10-13T02:40:09;16.40;99.90
25504;DHT22;13410;52.114;5.718;2022-10-13T02:42:35;16.40;99.90
25504;DHT22;13410;52.114;5.718;2022-10-13T02:45:00;16.50;99.90
25504;DHT22;13410;52.114;5.718;2022-10-13T02:47:26;16.50;99.90
25504;DHT22;13410;52.114;5.718;2022-10-13T02:49:51;16.50;99.90
25504;DHT22;13410;52.114;5.718;2022-10-13T02:52:17;16.60;99.90
25504;DHT22;13410;52.114;5.718;2022-10-13T02:54:42;16.60;99.90
25504;DHT22;13410;52.114;5.718;2022-10-13T02:57:08;16.70;99.90
25504;DHT22;13410;52.114;5.718;2022-10-13T02:59:33;16.70;99.90
25504;DHT22;13410;52.114;5.718;2022-10-13T03:01:59;16.70;99.90
25504;DHT22;13410;52.114;5.718;2022-10-13T03:04:25;16.70;99.90
25504;DHT22;13410;52.114;5.718;2022-10-13T03:06:50;16.70;99.90
25504;DHT22;13410;52.114;5.718;2022-10-13T03:09:16;16.80;99.90
25504;DHT22;13410;52.114;5.718;2022-10-13T03:11:41;16.70;99.90
25504;DHT22;13410;52.114;5.718;2022-10-13T03:14:07;16.60;99.90
25504;DHT22;13410;52.114;5.718;2022-10-13T03:16:32;16.60;99.90
25504;DHT22;13410;52.114;5.718;2022-10-13T03:18:58;16.60;99.90
25504;DHT22;13410;52.114;5.718;2022-10-13T03:21:24;16.60;99.90
25504;DHT22;13410;52.114;5.718;2022-10-13T03:23:49;16.60;99.90
25504;DHT22;13410;52.114;5.718;2022-10-13T03:26:15;16.60;99.90
25504;DHT22;13410;52.114;5.718;2022-10-13T03:28:41;16.20;99.90
25504;DHT22;13410;52.114;5.718;2022-10-13T03:31:09;16.20;99.90
25504;DHT22;13410;52.114;5.718;2022-10-13T03:33:35;16.40;99.90
25504;DHT22;13410;52.114;5.718;2022-10-13T03:36:03;16.50;99.90
25504;DHT22;13410;52.114;5.718;2022-10-13T03:38:30;16.40;99.90
25504;DHT22;13410;52.114;5.718;2022-10-13T03:40:56;16.50;99.90
25504;DHT22;13410;52.114;5.718;2022-10-13T03:43:22;16.50;99.90
25504;DHT22;13410;52.114;5.718;2022-10-13T03:45:55;16.50;99.90
25504;DHT22;13410;52.114;5.718;2022-10-13T03:48:21;16.50;99.90
25504;DHT22;13410;52.114;5.718;2022-10-13T03:50:47;16.50;99.90
25504;DHT22;13410;52.114;5.718;2022-10-13T03:53:12;16.60;99.90
25504;DHT22;13410;52.114;5.718;2022-10-13T03:55:38;16.60;99.90
25504;DHT22;13410;52.114;5.718;2022-10-13T03:58:03;16.80;99.90
25504;DHT22;13410;52.114;5.718;2022-10-13T04:00:29;16.70;99.90
25504;DHT22;13410;52.114;5.718;2022-10-13T04:02:54;16.80;99.90
25504;DHT22;13410;52.114;5.718;2022-10-13T04:05:20;16.70;99.90
25504;DHT22;13410;52.114;5.718;2022-10-13T04:07:46;16.60;99.90
25504;DHT22;13410;52.114;5.718;2022-10-13T04:10:11;16.80;99.90
25504;DHT22;13410;52.114;5.718;2022-10-13T04:12:37;16.70;99.90
25504;DHT22;13410;52.114;5.718;2022-10-13T04:15:03;16.80;99.90
25504;DHT22;13410;52.114;5.718;2022-10-13T04:17:29;16.80;99.90
25504;DHT22;13410;52.114;5.718;2022-10-13T04:19:54;16.80;99.90
25504;DHT22;13410;52.114;5.718;2022-10-13T04:22:20;16.80;99.90
25504;DHT22;13410;52.114;5.718;2022-10-13T04:24:45;16.90;99.90
25504;DHT22;13410;52.114;5.718;2022-10-13T04:27:11;16.80;99.90
25504;DHT22;13410;52.114;5.718;2022-10-13T04:29:36;16.70;99.90
25504;DHT22;13410;52.114;5.718;2022-10-13T04:32:02;16.70;99.90
25504;DHT22;13410;52.114;5.718;2022-10-13T04:34:28;16.60;99.90
25504;DHT22;13410;52.114;5.718;2022-10-13T04:36:53;16.70;99.90
25504;DHT22;13410;52.114;5.718;2022-10-13T04:39:19;16.70;99.90
25504;DHT22;13410;52.114;5.718;2022-10-13T04:41:44;16.60;99.90
25504;DHT22;13410;52.114;5.718;2022-10-13T04:44:10;16.70;99.90
25504;DHT22;13410;52.114;5.718;2022-10-13T04:46:35;16.70;99.90
25504;DHT22;13410;52.114;5.718;2022-10-13T04:49:01;16.50;99.90
25504;DHT22;13410;52.114;5.718;2022-10-13T04:51:27;16.80;99.90
25504;DHT22;13410;52.114;5.718;2022-10-13T04:53:54;16.90;99.90
25504;DHT22;13410;52.114;5.718;2022-10-13T04:56:20;16.80;99.90
25504;DHT22;13410;52.114;5.718;2022-10-13T04:58:46;16.70;99.90
25504;DHT22;13410;52.114;5.718;2022-10-13T05:01:15;16.70;99.90
25504;DHT22;13410;52.114;5.718;2022-10-13T05:03:41;16.70;99.90
25504;DHT22;13410;52.114;5.718;2022-10-13T05:06:16;16.80;99.90
25504;DHT22;13410;52.114;5.718;2022-10-13T05:08:42;16.70;99.90
25504;DHT22;13410;52.114;5.718;2022-10-13T05:11:08;16.70;99.90
25504;DHT22;13410;52.114;5.718;2022-10-13T05:13:35;16.80;99.90
25504;DHT22;13410;52.114;5.718;2022-10-13T05:16:08;16.80;99.90
25504;DHT22;13410;52.114;5.718;2022-10-13T05:18:35;16.80;99.90
25504;DHT22;13410;52.114;5.718;2022-10-13T05:21:11;16.90;99.90
25504;DHT22;13410;52.114;5.718;2022-10-13T05:23:38;16.90;99.90
25504;DHT22;13410;52.114;5.718;2022-10-13T05:26:06;16.80;99.90
25504;DHT22;13410;52.114;5.718;2022-10-13T05:28:32;16.80;99.90
25504;DHT22;13410;52.114;5.718;2022-10-13T05:31:08;16.80;99.90
25504;DHT22;13410;52.114;5.718;2022-10-13T05:33:33;16.90;99.90
25504;DHT22;13410;52.114;5.718;2022-10-13T05:36:08;16.90;99.90
25504;DHT22;13410;52.114;5.718;2022-10-13T05:38:33;17.00;99.90
25504;DHT22;13410;52.114;5.718;2022-10-13T05:41:07;17.00;99.90
25504;DHT22;13410;52.114;5.718;2022-10-13T05:43:33;16.90;99.90
25504;DHT22;13410;52.114;5.718;2022-10-13T05:45:59;16.90;99.90
25504;DHT22;13410;52.114;5.718;2022-10-13T05:48:25;17.10;99.90
25504;DHT22;13410;52.114;5.718;2022-10-13T05:50:52;17.10;99.90
25504;DHT22;13410;52.114;5.718;2022-10-13T05:53:18;16.90;99.90
25504;DHT22;13410;52.114;5.718;2022-10-13T05:55:44;16.90;99.90
25504;DHT22;13410;52.114;5.718;2022-10-13T05:58:10;17.00;99.90
25504;DHT22;13410;52.114;5.718;2022-10-13T06:00:36;17.00;99.90
25504;DHT22;13410;52.114;5.718;2022-10-13T06:03:06;16.90;99.90
25504;DHT22;13410;52.114;5.718;2022-10-13T06:05:33;17.10;99.90
25504;DHT22;13410;52.114;5.718;2022-10-13T06:08:00;17.10;99.90
25504;DHT22;13410;52.114;5.718;2022-10-13T06:10:26;16.90;99.90
25504;DHT22;13410;52.114;5.718;2022-10-13T06:12:51;17.00;99.90
25504;DHT22;13410;52.114;5.718;2022-10-13T06:15:17;17.00;99.90
25504;DHT22;13410;52.114;5.718;2022-10-13T06:17:43;17.10;99.90
25504;DHT22;13410;52.114;5.718;2022-10-13T06:20:09;17.30;99.90
25504;DHT22;13410;52.114;5.718;2022-10-13T06:22:37;17.10;99.90
25504;DHT22;13410;52.114;5.718;2022-10-13T06:25:04;17.00;99.90
25504;DHT22;13410;52.114;5.718;2022-10-13T06:27:30;17.10;99.90
25504;DHT22;13410;52.114;5.718;2022-10-13T06:29:56;17.10;99.90
25504;DHT22;13410;52.114;5.718;2022-10-13T06:32:22;17.20;99.90
25504;DHT22;13410;52.114;5.718;2022-10-13T06:34:48;17.20;99.90
25504;DHT22;13410;52.114;5.718;2022-10-13T06:37:14;17.30;99.90
25504;DHT22;13410;52.114;5.718;2022-10-13T06:39:39;17.30;99.90
25504;DHT22;13410;52.114;5.718;2022-10-13T06:42:05;17.40;99.90
25504;DHT22;13410;52.114;5.718;2022-10-13T06:44:31;17.50;99.90
25504;DHT22;13410;52.114;5.718;2022-10-13T06:46:57;17.40;99.90
25504;DHT22;13410;52.114;5.718;2022-10-13T06:49:23;17.40;99.90
25504;DHT22;13410;52.114;5.718;2022-10-13T06:51:49;17.40;99.90
25504;DHT22;13410;52.114;5.718;2022-10-13T06:54:15;17.40;99.90
25504;DHT22;13410;52.114;5.718;2022-10-13T06:56:40;17.40;99.90
25504;DHT22;13410;52.114;5.718;2022-10-13T06:59:06;17.40;99.90
25504;DHT22;13410;52.114;5.718;2022-10-13T07:01:32;17.50;99.90
25504;DHT22;13410;52.114;5.718;2022-10-13T07:03:58;17.50;99.90
25504;DHT22;13410;52.114;5.718;2022-10-13T07:06:23;17.60;99.90
25504;DHT22;13410;52.114;5.718;2022-10-13T07:08:49;17.60;99.90
25504;DHT22;13410;52.114;5.718;2022-10-13T07:11:15;17.50;99.90
25504;DHT22;13410;52.114;5.718;2022-10-13T07:13:43;17.60;99.90
25504;DHT22;13410;52.114;5.718;2022-10-13T07:16:09;17.50;99.90
25504;DHT22;13410;52.114;5.718;2022-10-13T07:18:35;17.60;99.90
25504;DHT22;13410;52.114;5.718;2022-10-13T07:21:01;17.70;99.90
25504;DHT22;13410;52.114;5.718;2022-10-13T07:23:27;17.70;99.90
25504;DHT22;13410;52.114;5.718;2022-10-13T07:25:54;17.70;99.90
25504;DHT22;13410;52.114;5.718;2022-10-13T07:28:22;17.80;99.90
25504;DHT22;13410;52.114;5.718;2022-10-13T07:30:48;18.00;99.90
25504;DHT22;13410;52.114;5.718;2022-10-13T07:33:13;18.20;99.90
25504;DHT22;13410;52.114;5.718;2022-10-13T07:35:39;18.10;99.90
25504;DHT22;13410;52.114;5.718;2022-10-13T07:38:06;18.10;99.90
25504;DHT22;13410;52.114;5.718;2022-10-13T07:40:32;18.10;99.90
25504;DHT22;13410;52.114;5.718;2022-10-13T07:42:57;18.00;99.90
25504;DHT22;13410;52.114;5.718;2022-10-13T07:45:23;18.10;99.90
25504;DHT22;13410;52.114;5.718;2022-10-13T07:47:49;18.30;99.90
25504;DHT22;13410;52.114;5.718;2022-10-13T07:50:14;18.30;99.90
25504;DHT22;13410;52.114;5.718;2022-10-13T07:52:40;18.10;99.90
25504;DHT22;13410;52.114;5.718;2022-10-13T07:55:06;18.20;99.90
25504;DHT22;13410;52.114;5.718;2022-10-13T07:57:32;18.20;99.90
25504;DHT22;13410;52.114;5.718;2022-10-13T07:59:58;18.10;99.90
25504;DHT22;13410;52.114;5.718;2022-10-13T08:02:23;18.00;99.90
25504;DHT22;13410;52.114;5.718;2022-10-13T08:04:49;18.20;99.90
25504;DHT22;13410;52.114;5.718;2022-10-13T08:07:14;18.10;99.90
25504;DHT22;13410;52.114;5.718;2022-10-13T08:09:41;18.10;99.90
25504;DHT22;13410;52.114;5.718;2022-10-13T08:12:06;18.10;99.90
25504;DHT22;13410;52.114;5.718;2022-10-13T08:14:32;18.30;99.90
25504;DHT22;13410;52.114;5.718;2022-10-13T08:16:58;18.40;99.90
25504;DHT22;13410;52.114;5.718;2022-10-13T08:19:24;18.50;99.90
25504;DHT22;13410;52.114;5.718;2022-10-13T08:21:51;18.50;99.90
25504;DHT22;13410;52.114;5.718;2022-10-13T08:24:17;18.60;99.90
25504;DHT22;13410;52.114;5.718;2022-10-13T08:26:44;18.70;99.90
25504;DHT22;13410;52.114;5.718;2022-10-13T08:29:11;18.70;99.90
25504;DHT22;13410;52.114;5.718;2022-10-13T08:31:37;18.70;99.90
25504;DHT22;13410;52.114;5.718;2022-10-13T08:34:03;18.80;99.90
25504;DHT22;13410;52.114;5.718;2022-10-13T08:36:28;18.80;99.90
25504;DHT22;13410;52.114;5.718;2022-10-13T08:38:54;18.70;99.90
25504;DHT22;13410;52.114;5.718;2022-10-13T08:41:23;18.70;99.90
25504;DHT22;13410;52.114;5.718;2022-10-13T08:44:18;18.80;99.90
25504;DHT22;13410;52.114;5.718;2022-10-13T08:47:04;18.80;99.90
25504;DHT22;13410;52.114;5.718;2022-10-13T08:49:33;18.90;99.90
25504;DHT22;13410;52.114;5.718;2022-10-13T08:52:02;18.80;99.90
25504;DHT22;13410;52.114;5.718;2022-10-13T08:54:28;18.90;99.90
25504;DHT22;13410;52.114;5.718;2022-10-13T08:56:54;19.00;99.90
25504;DHT22;13410;52.114;5.718;2022-10-13T08:59:19;19.10;99.90
25504;DHT22;13410;52.114;5.718;2022-10-13T09:01:46;19.20;99.90
25504;DHT22;13410;52.114;5.718;2022-10-13T09:04:33;19.00;99.90
25504;DHT22;13410;52.114;5.718;2022-10-13T09:07:33;19.00;99.90
25504;DHT22;13410;52.114;5.718;2022-10-13T09:09:59;19.00;99.90
25504;DHT22;13410;52.114;5.718;2022-10-13T09:12:25;18.90;99.90
25504;DHT22;13410;52.114;5.718;2022-10-13T09:15:09;19.20;99.90
25504;DHT22;13410;52.114;5.718;2022-10-13T09:17:36;19.40;99.90
25504;DHT22;13410;52.114;5.718;2022-10-13T09:20:24;19.60;99.90
25504;DHT22;13410;52.114;5.718;2022-10-13T09:23:21;20.10;99.90
25504;DHT22;13410;52.114;5.718;2022-10-13T09:25:51;20.50;99.90
25504;DHT22;13410;52.114;5.718;2022-10-13T09:28:23;20.40;99.90
25504;DHT22;13410;52.114;5.718;2022-10-13T09:33:25;20.40;99.90
25504;DHT22;13410;52.114;5.718;2022-10-13T09:38:27;20.80;99.90
25504;DHT22;13410;52.114;5.718;2022-10-13T09:41:05;20.90;99.90
25504;DHT22;13410;52.114;5.718;2022-10-13T09:46:44;21.20;99.90
25504;DHT22;13410;52.114;5.718;2022-10-13T09:49:35;21.10;99.90
25504;DHT22;13410;52.114;5.718;2022-10-13T09:57:19;21.10;99.90
25504;DHT22;13410;52.114;5.718;2022-10-13T10:00:32;21.20;99.90
25504;DHT22;13410;52.114;5.718;2022-10-13T10:03:02;21.20;99.90
25504;DHT22;13410;52.114;5.718;2022-10-13T10:08:25;21.20;99.90
25504;DHT22;13410;52.114;5.718;2022-10-13T10:10:52;21.20;99.90
25504;DHT22;13410;52.114;5.718;2022-10-13T10:13:18;21.20;99.90
25504;DHT22;13410;52.114;5.718;2022-10-13T10:18:38;20.90;99.90
25504;DHT22;13410;52.114;5.718;2022-10-13T10:21:30;21.10;99.90
25504;DHT22;13410;52.114;5.718;2022-10-13T10:30:07;21.00;99.90
25504;DHT22;13410;52.114;5.718;2022-10-13T10:35:23;21.20;99.90
25504;DHT22;13410;52.114;5.718;2022-10-13T10:38:14;21.20;99.90
25504;DHT22;13410;52.114;5.718;2022-10-13T10:46:23;21.40;99.90
25504;DHT22;13410;52.114;5.718;2022-10-13T10:48:53;21.50;99.90
25504;DHT22;13410;52.114;5.718;2022-10-13T10:51:24;21.60;99.90
25504;DHT22;13410;52.114;5.718;2022-10-13T10:54:02;21.70;99.90
25504;DHT22;13410;52.114;5.718;2022-10-13T10:56:36;21.70;99.90
25504;DHT22;13410;52.114;5.718;2022-10-13T11:04:41;22.00;99.90
25504;DHT22;13410;52.114;5.718;2022-10-13T11:19:41;22.10;99.90
25504;DHT22;13410;52.114;5.718;2022-10-13T11:22:10;22.10;99.90
25504;DHT22;13410;52.114;5.718;2022-10-13T11:48:44;20.70;99.90
25504;DHT22;13410;52.114;5.718;2022-10-13T11:51:41;20.90;99.90
25504;DHT22;13410;52.114;5.718;2022-10-13T11:54:26;20.90;99.90
25504;DHT22;13410;52.114;5.718;2022-10-13T11:56:56;20.80;99.90
25504;DHT22;13410;52.114;5.718;2022-10-13T11:59:34;20.70;99.90
25504;DHT22;13410;52.114;5.718;2022-10-13T12:04:38;20.70;99.90
25504;DHT22;13410;52.114;5.718;2022-10-13T12:07:06;21.00;99.90
25504;DHT22;13410;52.114;5.718;2022-10-13T12:09:38;20.90;99.90
25504;DHT22;13410;52.114;5.718;2022-10-13T12:12:14;20.90;99.90
25504;DHT22;13410;52.114;5.718;2022-10-13T12:14:46;20.90;99.90
25504;DHT22;13410;52.114;5.718;2022-10-13T12:17:30;20.80;99.90
25504;DHT22;13410;52.114;5.718;2022-10-13T12:20:03;20.70;99.90
25504;DHT22;13410;52.114;5.718;2022-10-13T12:22:47;20.80;99.90
25504;DHT22;13410;52.114;5.718;2022-10-13T12:25:17;20.70;99.90
25504;DHT22;13410;52.114;5.718;2022-10-13T12:27:53;20.80;99.90
25504;DHT22;13410;52.114;5.718;2022-10-13T12:30:31;20.70;99.90
25504;DHT22;13410;52.114;5.718;2022-10-13T12:33:00;20.60;99.90
25504;DHT22;13410;52.114;5.718;2022-10-13T12:35:31;20.30;99.90
25504;DHT22;13410;52.114;5.718;2022-10-13T12:38:00;20.40;99.90
25504;DHT22;13410;52.114;5.718;2022-10-13T12:40:28;20.50;99.90
25504;DHT22;13410;52.114;5.718;2022-10-13T12:42:54;20.50;99.90
25504;DHT22;13410;52.114;5.718;2022-10-13T12:45:22;20.30;99.90
25504;DHT22;13410;52.114;5.718;2022-10-13T12:47:49;20.30;99.90
25504;DHT22;13410;52.114;5.718;2022-10-13T12:53:36;20.20;99.90
25504;DHT22;13410;52.114;5.718;2022-10-13T12:55:53;19.90;99.90
25504;DHT22;13410;52.114;5.718;2022-10-13T12:58:33;19.80;99.90
25504;DHT22;13410;52.114;5.718;2022-10-13T13:03:38;19.90;99.90
25504;DHT22;13410;52.114;5.718;2022-10-13T13:08:41;20.00;99.90
25504;DHT22;13410;52.114;5.718;2022-10-13T13:11:34;20.00;99.90
25504;DHT22;13410;52.114;5.718;2022-10-13T13:17:06;20.00;99.90
25504;DHT22;13410;52.114;5.718;2022-10-13T13:19:34;19.80;99.90
25504;DHT22;13410;52.114;5.718;2022-10-13T13:22:00;19.70;99.90
25504;DHT22;13410;52.114;5.718;2022-10-13T13:24:25;19.70;99.90
25504;DHT22;13410;52.114;5.718;2022-10-13T13:26:51;19.50;99.90
25504;DHT22;13410;52.114;5.718;2022-10-13T13:29:17;19.60;99.90
25504;DHT22;13410;52.114;5.718;2022-10-13T13:31:43;19.50;99.90
25504;DHT22;13410;52.114;5.718;2022-10-13T13:34:08;19.40;99.90
25504;DHT22;13410;52.114;5.718;2022-10-13T13:36:34;19.40;99.90
25504;DHT22;13410;52.114;5.718;2022-10-13T13:38:59;19.50;99.90
25504;DHT22;13410;52.114;5.718;2022-10-13T13:41:25;19.50;99.90
25504;DHT22;13410;52.114;5.718;2022-10-13T13:43:52;19.40;99.90
25504;DHT22;13410;52.114;5.718;2022-10-13T13:46:20;19.50;99.90
25504;DHT22;13410;52.114;5.718;2022-10-13T13:48:47;19.50;99.90
25504;DHT22;13410;52.114;5.718;2022-10-13T13:51:12;19.70;99.90
25504;DHT22;13410;52.114;5.718;2022-10-13T13:53:38;19.60;99.90
25504;DHT22;13410;52.114;5.718;2022-10-13T13:56:04;19.70;99.90
25504;DHT22;13410;52.114;5.718;2022-10-13T13:58:30;19.60;99.90
25504;DHT22;13410;52.114;5.718;2022-10-13T14:00:57;19.50;99.90
25504;DHT22;13410;52.114;5.718;2022-10-13T14:03:23;19.50;99.90
25504;DHT22;13410;52.114;5.718;2022-10-13T14:05:48;19.50;99.90
25504;DHT22;13410;52.114;5.718;2022-10-13T14:08:14;19.60;99.90
25504;DHT22;13410;52.114;5.718;2022-10-13T14:10:40;19.70;99.90
25504;DHT22;13410;52.114;5.718;2022-10-13T14:13:05;19.90;99.90
25504;DHT22;13410;52.114;5.718;2022-10-13T14:15:31;20.00;99.90
25504;DHT22;13410;52.114;5.718;2022-10-13T14:17:57;20.00;99.90
25504;DHT22;13410;52.114;5.718;2022-10-13T14:20:22;20.00;99.90
25504;DHT22;13410;52.114;5.718;2022-10-13T14:22:48;20.00;99.90
25504;DHT22;13410;52.114;5.718;2022-10-13T14:25:14;20.20;99.90
25504;DHT22;13410;52.114;5.718;2022-10-13T14:27:39;20.30;99.90
25504;DHT22;13410;52.114;5.718;2022-10-13T14:30:07;20.70;99.90
25504;DHT22;13410;52.114;5.718;2022-10-13T14:32:35;20.70;99.90
25504;DHT22;13410;52.114;5.718;2022-10-13T14:35:01;21.00;99.90
25504;DHT22;13410;52.114;5.718;2022-10-13T14:37:26;21.00;99.90
25504;DHT22;13410;52.114;5.718;2022-10-13T14:39:52;21.10;99.90
25504;DHT22;13410;52.114;5.718;2022-10-13T14:42:18;21.00;99.90
25504;DHT22;13410;52.114;5.718;2022-10-13T14:44:43;20.90;99.90
25504;DHT22;13410;52.114;5.718;2022-10-13T14:47:09;20.90;99.90
25504;DHT22;13410;52.114;5.718;2022-10-13T14:49:35;21.00;99.90
25504;DHT22;13410;52.114;5.718;2022-10-13T14:52:00;20.90;99.90
25504;DHT22;13410;52.114;5.718;2022-10-13T14:54:26;20.80;99.90
25504;DHT22;13410;52.114;5.718;2022-10-13T14:56:51;20.70;99.90
25504;DHT22;13410;52.114;5.718;2022-10-13T14:59:17;20.70;99.90
25504;DHT22;13410;52.114;5.718;2022-10-13T15:01:43;20.60;99.90
25504;DHT22;13410;52.114;5.718;2022-10-13T15:04:09;20.90;99.90
25504;DHT22;13410;52.114;5.718;2022-10-13T15:06:36;20.70;99.90
25504;DHT22;13410;52.114;5.718;2022-10-13T15:09:04;20.50;99.90
25504;DHT22;13410;52.114;5.718;2022-10-13T15:11:30;20.50;99.90
25504;DHT22;13410;52.114;5.718;2022-10-13T15:13:56;20.50;99.90
25504;DHT22;13410;52.114;5.718;2022-10-13T15:16:26;20.50;99.90
25504;DHT22;13410;52.114;5.718;2022-10-13T15:18:53;20.50;99.90
25504;DHT22;13410;52.114;5.718;2022-10-13T15:21:19;20.50;99.90
25504;DHT22;13410;52.114;5.718;2022-10-13T15:23:45;20.60;99.90
25504;DHT22;13410;52.114;5.718;2022-10-13T15:26:12;20.50;99.90
25504;DHT22;13410;52.114;5.718;2022-10-13T15:28:41;20.20;99.90
25504;DHT22;13410;52.114;5.718;2022-10-13T15:31:07;20.10;99.90
25504;DHT22;13410;52.114;5.718;2022-10-13T15:33:33;20.20;99.90
25504;DHT22;13410;52.114;5.718;2022-10-13T15:35:59;20.30;99.90
25504;DHT22;13410;52.114;5.718;2022-10-13T15:38:25;20.30;99.90
25504;DHT22;13410;52.114;5.718;2022-10-13T15:40:51;20.20;99.90
25504;DHT22;13410;52.114;5.718;2022-10-13T15:43:17;20.20;99.90
25504;DHT22;13410;52.114;5.718;2022-10-13T15:45:52;20.10;99.90
25504;DHT22;13410;52.114;5.718;2022-10-13T15:48:19;19.90;99.90
25504;DHT22;13410;52.114;5.718;2022-10-13T15:50:44;19.70;99.90
25504;DHT22;13410;52.114;5.718;2022-10-13T15:53:10;19.80;99.90
25504;DHT22;13410;52.114;5.718;2022-10-13T15:55:37;19.80;99.90
25504;DHT22;13410;52.114;5.718;2022-10-13T15:58:03;19.80;99.90
25504;DHT22;13410;52.114;5.718;2022-10-13T16:00:28;19.80;99.90
25504;DHT22;13410;52.114;5.718;2022-10-13T16:02:54;19.90;99.90
25504;DHT22;13410;52.114;5.718;2022-10-13T16:05:19;19.80;99.90
25504;DHT22;13410;52.114;5.718;2022-10-13T16:07:45;19.60;99.90
25504;DHT22;13410;52.114;5.718;2022-10-13T16:10:12;19.70;99.90
25504;DHT22;13410;52.114;5.718;2022-10-13T16:12:39;19.70;99.90
25504;DHT22;13410;52.114;5.718;2022-10-13T16:15:05;19.60;99.90
25504;DHT22;13410;52.114;5.718;2022-10-13T16:17:31;19.70;99.90
25504;DHT22;13410;52.114;5.718;2022-10-13T16:19:57;19.50;99.90
25504;DHT22;13410;52.114;5.718;2022-10-13T16:22:23;19.60;99.90
25504;DHT22;13410;52.114;5.718;2022-10-13T16:24:49;19.50;99.90
25504;DHT22;13410;52.114;5.718;2022-10-13T16:27:14;19.50;99.90
25504;DHT22;13410;52.114;5.718;2022-10-13T16:29:40;19.50;99.90
25504;DHT22;13410;52.114;5.718;2022-10-13T16:32:05;19.50;99.90
25504;DHT22;13410;52.114;5.718;2022-10-13T16:34:31;19.50;99.90
25504;DHT22;13410;52.114;5.718;2022-10-13T16:36:57;19.30;99.90
25504;DHT22;13410;52.114;5.718;2022-10-13T16:39:22;19.20;99.90
25504;DHT22;13410;52.114;5.718;2022-10-13T16:41:49;19.10;99.90
25504;DHT22;13410;52.114;5.718;2022-10-13T16:44:16;19.10;99.90
25504;DHT22;13410;52.114;5.718;2022-10-13T16:46:42;19.10;99.90
25504;DHT22;13410;52.114;5.718;2022-10-13T16:49:08;19.10;99.90
25504;DHT22;13410;52.114;5.718;2022-10-13T16:51:34;19.10;99.90
25504;DHT22;13410;52.114;5.718;2022-10-13T16:53:59;18.80;99.90
25504;DHT22;13410;52.114;5.718;2022-10-13T16:56:26;18.80;99.90
25504;DHT22;13410;52.114;5.718;2022-10-13T16:59:00;18.60;99.90
25504;DHT22;13410;52.114;5.718;2022-10-13T17:01:27;18.60;99.90
25504;DHT22;13410;52.114;5.718;2022-10-13T17:03:53;18.50;99.90
25504;DHT22;13410;52.114;5.718;2022-10-13T17:06:21;18.50;99.90
25504;DHT22;13410;52.114;5.718;2022-10-13T17:08:48;18.30;99.90
25504;DHT22;13410;52.114;5.718;2022-10-13T17:11:19;18.10;99.90
25504;DHT22;13410;52.114;5.718;2022-10-13T17:13:45;18.20;99.90
25504;DHT22;13410;52.114;5.718;2022-10-13T17:16:11;18.10;99.90
25504;DHT22;13410;52.114;5.718;2022-10-13T17:18:37;18.10;99.90
25504;DHT22;13410;52.114;5.718;2022-10-13T17:21:05;18.10;99.90
25504;DHT22;13410;52.114;5.718;2022-10-13T17:23:33;18.30;99.90